Time;durP1;ratioP1;P1;durP2;ratioP2;P2;SDS_P1;SDS_P2;PMS_P1;PMS_P2;Temp;Humidity;BMP_temperature;BMP_pressure;BME280_temperature;BME280_humidity;BME280_pressure;Samples;Min_cycle;Max_cycle;Signal;HPM_P1;HPM_P2
2023/01/12 00:00:50;;;;;;;11.83;7.80;;;5.30;99.90;;;;;;10071912;29;20518;-83
2023/01/12 00:06:11;;;;;;;8.63;6.50;;;5.40;99.90;;;;;;10083732;29;20283;-83
2023/01/12 00:11:33;;;;;;;13.83;6.80;;;5.40;99.90;;;;;;10098173;29;20224;-82
2023/01/12 00:16:54;;;;;;;10.00;7.37;;;5.40;99.90;;;;;;10085816;29;20200;-83
2023/01/12 00:22:16;;;;;;;9.33;7.37;;;5.50;99.90;;;;;;10099890;29;20232;-82
2023/01/12 00:27:37;;;;;;;12.07;8.47;;;5.50;99.90;;;;;;10085948;29;20212;-82
2023/01/12 00:32:59;;;;;;;16.00;8.13;;;5.50;99.90;;;;;;10082732;29;20463;-82
2023/01/12 00:38:20;;;;;;;10.73;6.83;;;5.50;99.90;;;;;;10097671;29;20208;-82
2023/01/12 00:49:21;;;;;;;11.33;7.17;;;5.60;99.90;;;;;;10097509;29;20204;-82
2023/01/12 00:54:43;;;;;;;13.23;7.10;;;5.60;99.90;;;;;;10081500;29;20247;-82
2023/01/12 01:00:05;;;;;;;10.43;6.80;;;5.60;99.90;;;;;;10080722;29;20233;-82
2023/01/12 01:05:26;;;;;;;9.57;6.00;;;5.50;99.90;;;;;;10081179;29;20213;-82
2023/01/12 01:10:47;;;;;;;11.87;5.70;;;5.50;99.90;;;;;;10093628;29;20236;-82
2023/01/12 01:16:11;;;;;;;10.30;5.63;;;5.40;99.90;;;;;;10080824;29;20229;-83
2023/01/12 01:21:32;;;;;;;9.20;6.10;;;5.50;99.90;;;;;;10080670;29;20212;-82
2023/01/12 01:26:53;;;;;;;13.50;7.10;;;5.50;99.90;;;;;;10049403;29;20218;-83
2023/01/12 01:32:14;;;;;;;12.33;7.77;;;5.40;99.90;;;;;;10080552;29;20268;-83
2023/01/12 01:37:36;;;;;;;12.03;7.57;;;5.40;99.90;;;;;;10095461;29;20279;-83
2023/01/12 01:42:57;;;;;;;16.13;8.57;;;5.40;99.90;;;;;;10077995;29;20213;-83
2023/01/12 01:48:18;;;;;;;10.63;7.10;;;5.50;99.90;;;;;;10080321;29;20212;-83
2023/01/12 01:53:43;;;;;;;10.90;7.27;;;5.50;99.90;;;;;;10067021;29;20299;-83
2023/01/12 01:59:14;;;;;;;11.17;7.17;;;5.60;99.90;;;;;;10083249;29;20213;-82
2023/01/12 02:04:35;;;;;;;23.83;8.80;;;5.60;99.90;;;;;;10078850;29;20216;-83
2023/01/12 02:09:57;;;;;;;16.73;8.27;;;5.50;99.90;;;;;;10091896;29;20241;-81
2023/01/12 02:21:31;;;;;;;16.17;9.00;;;5.60;99.90;;;;;;10094639;29;20210;-82
2023/01/12 02:27:01;;;;;;;17.57;10.03;;;5.60;99.90;;;;;;10068158;29;20233;-83
2023/01/12 02:32:25;;;;;;;15.40;9.97;;;5.60;99.90;;;;;;10070678;29;20456;-83
2023/01/12 02:38:07;;;;;;;14.70;9.87;;;5.60;99.90;;;;;;10063409;29;20257;-83
2023/01/12 02:43:31;;;;;;;18.40;10.63;;;5.60;99.90;;;;;;10071030;29;20326;-83
2023/01/12 02:49:00;;;;;;;16.30;10.17;;;5.60;99.90;;;;;;10040622;29;20213;-82
2023/01/12 02:54:23;;;;;;;16.03;10.53;;;5.60;99.90;;;;;;10043199;29;20258;-83
2023/01/12 02:59:49;;;;;;;14.90;10.47;;;5.70;99.90;;;;;;10057081;29;20281;-81
2023/01/12 03:05:10;;;;;;;25.33;11.23;;;5.70;99.90;;;;;;10041276;29;20221;-82
2023/01/12 03:10:51;;;;;;;22.70;11.17;;;5.70;99.90;;;;;;10079476;29;20300;-83
2023/01/12 03:16:16;;;;;;;23.77;9.93;;;5.80;99.90;;;;;;10085905;29;20206;-81
2023/01/12 03:21:41;;;;;;;18.57;8.07;;;5.80;99.90;;;;;;10072257;29;20206;-81
2023/01/12 03:27:15;;;;;;;11.73;8.27;;;5.80;99.90;;;;;;10076978;29;20509;-83
2023/01/12 03:32:37;;;;;;;13.93;7.77;;;5.80;99.90;;;;;;10098766;29;20288;-82
2023/01/12 03:38:25;;;;;;;15.60;6.83;;;5.80;99.90;;;;;;10084537;29;20284;-82
2023/01/12 03:43:54;;;;;;;10.63;5.63;;;5.80;99.90;;;;;;10084894;29;20202;-82
2023/01/12 03:49:32;;;;;;;11.90;5.70;;;5.70;99.90;;;;;;10099626;29;20213;-82
2023/01/12 03:54:56;;;;;;;13.20;6.73;;;5.50;99.90;;;;;;10098861;29;20316;-82
2023/01/12 04:00:20;;;;;;;13.47;6.70;;;5.40;99.90;;;;;;10097003;29;20251;-83
2023/01/12 04:05:42;;;;;;;16.10;7.93;;;5.20;99.90;;;;;;10070768;29;20284;-82
2023/01/12 04:12:08;;;;;;;11.17;6.10;;;5.10;99.90;;;;;;10044935;29;20240;-82
2023/01/12 04:16:45;;;;;;;15.10;6.20;;;5.20;99.90;;;;;;10045016;29;20234;-83
2023/01/12 04:27:57;;;;;;;14.73;6.67;;;5.30;99.90;;;;;;10082921;29;20209;-83
2023/01/12 04:33:18;;;;;;;16.13;7.90;;;5.40;99.90;;;;;;10083164;29;20599;-82
2023/01/12 04:38:40;;;;;;;16.43;8.07;;;5.40;99.90;;;;;;10055739;29;20210;-83
2023/01/12 04:44:01;;;;;;;13.80;7.73;;;5.40;99.90;;;;;;10057607;29;20200;-82
2023/01/12 04:49:22;;;;;;;19.27;8.83;;;5.50;99.90;;;;;;10057160;29;20202;-81
2023/01/12 04:54:44;;;;;;;17.33;7.70;;;5.50;99.90;;;;;;10039193;29;20290;-82
2023/01/12 05:00:06;;;;;;;11.63;6.73;;;5.50;99.90;;;;;;10074578;29;20220;-82
2023/01/12 05:05:29;;;;;;;20.93;7.57;;;5.50;99.90;;;;;;10046203;29;20393;-82
2023/01/12 05:10:53;;;;;;;13.07;6.43;;;5.50;99.90;;;;;;10030397;29;20495;-81
2023/01/12 05:16:16;;;;;;;12.73;7.13;;;5.50;99.90;;;;;;10042819;29;20205;-80
2023/01/12 05:21:37;;;;;;;13.27;6.77;;;5.50;99.90;;;;;;10064909;29;20217;-81
2023/01/12 05:27:00;;;;;;;13.53;7.63;;;5.60;99.90;;;;;;10086976;29;20222;-82
2023/01/12 05:32:21;;;;;;;20.57;9.80;;;5.60;99.90;;;;;;10101461;29;20233;-81
2023/01/12 05:37:44;;;;;;;21.13;10.20;;;5.50;99.90;;;;;;10072663;29;20210;-81
2023/01/12 05:48:44;;;;;;;18.83;9.93;;;5.50;99.90;;;;;;10056902;29;20202;-82
2023/01/12 05:54:06;;;;;;;19.07;9.67;;;5.60;99.90;;;;;;10059189;29;20264;-82
2023/01/12 05:59:27;;;;;;;18.23;9.20;;;5.60;99.90;;;;;;10079865;29;20216;-82
2023/01/12 06:04:48;;;;;;;18.43;9.13;;;5.60;99.90;;;;;;10081495;29;20437;-82
2023/01/12 06:10:11;;;;;;;16.43;9.13;;;5.70;99.90;;;;;;10092744;29;20515;-82
2023/01/12 06:15:32;;;;;;;31.50;16.67;;;5.70;99.90;;;;;;10079306;29;20288;-83
2023/01/12 06:20:58;;;;;;;30.23;12.47;;;5.60;99.90;;;;;;10079205;29;20216;-83
2023/01/12 06:26:19;;;;;;;26.60;13.00;;;5.50;99.90;;;;;;10072301;29;20199;-83
2023/01/12 06:31:42;;;;;;;40.83;14.67;;;5.60;99.90;;;;;;10041450;29;20261;-82
2023/01/12 06:37:06;;;;;;;23.00;9.20;;;5.70;99.90;;;;;;10069387;29;20206;-83
2023/01/12 06:42:27;;;;;;;19.23;8.73;;;5.70;99.90;;;;;;10079606;29;20215;-82
2023/01/12 06:47:50;;;;;;;15.73;7.90;;;5.70;99.90;;;;;;10091478;29;20197;-83
2023/01/12 06:53:12;;;;;;;17.23;8.10;;;5.70;99.90;;;;;;10066160;29;20276;-82
2023/01/12 06:58:33;;;;;;;25.80;14.80;;;5.70;99.90;;;;;;10081267;29;20224;-83
2023/01/12 07:03:54;;;;;;;19.23;8.03;;;5.70;99.90;;;;;;10085846;29;20219;-82
2023/01/12 07:09:16;;;;;;;17.83;7.60;;;5.60;99.90;;;;;;10096498;29;20575;-81
2023/01/12 07:14:37;;;;;;;14.20;7.40;;;5.70;99.90;;;;;;10086311;29;20607;-81
2023/01/12 07:20:00;;;;;;;20.57;7.47;;;5.70;99.90;;;;;;10073212;29;20516;-82
2023/01/12 07:25:24;;;;;;;14.50;8.53;;;5.70;99.90;;;;;;10059177;29;20524;-81
2023/01/12 07:30:46;;;;;;;12.50;5.40;;;5.80;99.90;;;;;;10040249;29;20236;-82
2023/01/12 07:36:09;;;;;;;15.13;5.53;;;5.70;99.90;;;;;;10101831;29;20238;-82
2023/01/12 07:47:11;;;;;;;15.10;6.57;;;5.80;99.90;;;;;;10080540;29;20277;-82
2023/01/12 07:52:33;;;;;;;16.60;7.67;;;5.70;99.90;;;;;;10084444;29;20245;-82
2023/01/12 07:57:59;;;;;;;15.40;5.77;;;5.80;99.90;;;;;;10086588;29;20265;-82
2023/01/12 08:03:21;;;;;;;23.73;9.40;;;5.80;99.90;;;;;;10083435;29;20217;-82
2023/01/12 08:08:44;;;;;;;30.07;11.07;;;5.80;99.90;;;;;;10072909;29;20228;-82
2023/01/12 08:14:05;;;;;;;14.10;6.87;;;5.80;99.90;;;;;;10082602;29;20238;-82
2023/01/12 08:19:36;;;;;;;18.97;8.30;;;5.80;99.90;;;;;;10095179;29;20205;-81
2023/01/12 08:25:05;;;;;;;26.43;13.10;;;5.80;99.90;;;;;;10098914;29;20206;-83
2023/01/12 08:30:29;;;;;;;19.57;7.27;;;5.80;99.90;;;;;;10038205;29;20315;-83
2023/01/12 08:35:51;;;;;;;13.27;6.00;;;5.90;99.90;;;;;;10074771;29;20212;-85
2023/01/12 08:41:31;;;;;;;13.00;5.37;;;5.90;99.90;;;;;;10049196;29;20261;-85
2023/01/12 08:46:52;;;;;;;13.20;5.83;;;6.00;99.90;;;;;;10166750;23;20349;-86
2023/01/12 08:52:15;;;;;;;28.77;11.00;;;5.90;99.90;;;;;;10203429;23;20251;-86
2023/01/12 08:57:37;;;;;;;26.70;9.83;;;5.80;99.90;;;;;;10191707;29;20225;-82
2023/01/12 09:03:00;;;;;;;19.10;7.73;;;5.90;99.90;;;;;;10184624;29;20215;-88
2023/01/12 09:08:21;;;;;;;44.47;19.43;;;5.80;99.90;;;;;;10175033;29;20286;-85
2023/01/12 09:13:43;;;;;;;31.53;12.20;;;5.90;99.90;;;;;;10177593;29;20263;-84
2023/01/12 09:19:05;;;;;;;36.53;14.63;;;5.80;99.90;;;;;;10230603;29;20202;-86
2023/01/12 09:24:26;;;;;;;28.93;11.03;;;5.80;99.90;;;;;;10170931;29;20210;-85
2023/01/12 09:29:47;;;;;;;19.43;6.87;;;5.90;99.90;;;;;;10168886;29;20237;-83
2023/01/12 09:35:09;;;;;;;25.33;9.30;;;5.90;99.90;;;;;;10185256;29;20395;-85
2023/01/12 09:40:30;;;;;;;15.63;6.73;;;6.00;99.90;;;;;;10150598;23;20214;-83
2023/01/12 09:51:46;;;;;;;16.73;6.70;;;5.90;99.90;;;;;;10219541;29;20243;-85
2023/01/12 09:57:33;;;;;;;17.73;7.77;;;5.90;99.90;;;;;;10210262;29;20281;-83
2023/01/12 10:03:14;;;;;;;11.20;6.00;;;5.90;99.90;;;;;;10229449;29;20205;-89
2023/01/12 10:08:40;;;;;;;14.53;6.27;;;5.90;99.90;;;;;;10221611;29;20200;-88
2023/01/12 10:14:43;;;;;;;19.53;8.13;;;5.90;99.90;;;;;;10232660;29;20439;-88
2023/01/12 10:20:14;;;;;;;19.73;7.13;;;5.90;99.90;;;;;;10199612;23;20261;-87
2023/01/12 10:26:26;;;;;;;15.77;6.30;;;6.00;99.90;;;;;;10209720;23;20454;-86
2023/01/12 10:32:13;;;;;;;13.03;5.63;;;6.00;99.90;;;;;;10232174;23;20243;31
2023/01/12 10:37:43;;;;;;;12.90;5.87;;;6.00;99.90;;;;;;10099174;29;20219;-91
2023/01/12 10:43:18;;;;;;;13.67;5.07;;;6.00;99.90;;;;;;10109030;29;20202;-88
2023/01/12 10:48:51;;;;;;;15.00;7.00;;;6.10;99.90;;;;;;10117265;23;20309;-85
2023/01/12 10:54:25;;;;;;;18.13;5.77;;;6.20;99.90;;;;;;10311446;23;20272;31
2023/01/12 10:59:58;;;;;;;13.27;5.37;;;6.20;99.90;;;;;;10098343;29;20208;-89
2023/01/12 11:05:41;;;;;;;18.20;6.57;;;6.20;99.90;;;;;;10126361;23;20590;-86
2023/01/12 11:11:41;;;;;;;23.87;9.47;;;6.20;99.90;;;;;;10217145;29;20235;-82
2023/01/12 11:17:24;;;;;;;29.67;10.83;;;6.30;99.90;;;;;;10157582;29;20217;-84
2023/01/12 11:22:48;;;;;;;15.73;6.53;;;6.30;99.90;;;;;;10177707;24;20246;-86
2023/01/12 11:28:28;;;;;;;15.00;5.83;;;6.30;99.90;;;;;;10201582;29;20262;-81
2023/01/12 11:34:01;;;;;;;14.03;5.57;;;6.40;99.90;;;;;;10606602;23;20247;-82
2023/01/12 11:39:37;;;;;;;18.23;7.03;;;6.40;99.90;;;;;;10196873;29;20235;-84
2023/01/12 11:45:23;;;;;;;10.33;4.30;;;6.50;99.90;;;;;;10149858;23;20255;-85
2023/01/12 11:50:49;;;;;;;17.17;5.93;;;6.50;99.90;;;;;;10107321;29;20215;-86
2023/01/12 11:56:36;;;;;;;11.37;4.83;;;6.60;99.90;;;;;;10127635;29;20212;-89
2023/01/12 12:02:24;;;;;;;9.83;5.17;;;6.60;99.90;;;;;;10236626;23;20249;-90
2023/01/12 12:08:16;;;;;;;13.67;6.17;;;6.60;99.90;;;;;;10211745;29;20214;-81
2023/01/12 12:13:54;;;;;;;18.53;5.27;;;6.60;99.90;;;;;;10222523;29;20278;-88
2023/01/12 12:19:46;;;;;;;8.67;3.80;;;6.70;99.90;;;;;;10267212;23;20328;-87
2023/01/12 12:32:39;;;;;;;10.87;4.57;;;6.80;99.90;;;;;;10211211;29;20233;-82
2023/01/12 12:38:42;;;;;;;15.53;5.60;;;6.80;99.90;;;;;;10236112;29;20227;-83
2023/01/12 12:49:59;;;;;;;15.60;4.40;;;6.80;99.90;;;;;;10218726;28;20410;-85
2023/01/12 12:55:21;;;;;;;11.05;4.25;;;6.90;99.90;;;;;;10255079;23;20437;31
2023/01/12 13:00:53;;;;;;;13.47;5.13;;;6.80;99.90;;;;;;10259914;28;20204;-88
2023/01/12 13:06:45;;;;;;;24.27;6.50;;;6.70;99.90;;;;;;10447282;23;20246;-90
2023/01/12 13:12:57;;;;;;;12.07;6.17;;;6.70;99.90;;;;;;10334426;23;20253;-89
2023/01/12 13:18:51;;;;;;;14.10;5.23;;;6.70;99.90;;;;;;10382844;23;20238;31
2023/01/12 13:25:22;;;;;;;20.53;8.37;;;6.70;99.90;;;;;;10347478;23;20458;-86
2023/01/12 13:30:54;;;;;;;17.40;6.67;;;6.70;99.90;;;;;;10317488;28;20382;-92
2023/01/12 13:36:30;;;;;;;17.33;5.83;;;6.60;99.90;;;;;;10340208;23;20276;-88
2023/01/12 13:47:53;;;;;;;16.90;7.53;;;6.80;99.90;;;;;;10341168;23;20254;-82
2023/01/12 13:53:36;;;;;;;14.90;5.77;;;6.80;99.90;;;;;;10348116;28;20232;-92
2023/01/12 13:59:03;;;;;;;18.63;7.13;;;6.80;99.90;;;;;;10696604;23;20248;-88
2023/01/12 14:05:46;;;;;;;17.60;7.40;;;6.80;99.90;;;;;;10316897;28;20225;-93
2023/01/12 14:11:33;;;;;;;57.27;26.67;;;6.80;99.90;;;;;;10296859;28;20212;-85
2023/01/12 14:23:35;;;;;;;19.77;7.97;;;6.90;99.90;;;;;;10231990;29;20546;-87
2023/01/12 14:29:22;;;;;;;43.97;15.67;;;7.00;99.90;;;;;;10247865;28;20201;-89
2023/01/12 14:34:51;;;;;;;23.20;8.43;;;7.00;99.90;;;;;;10349888;23;1211517;-89
2023/01/12 14:40:31;;;;;;;12.77;5.60;;;7.10;99.90;;;;;;10380247;23;20545;-82
2023/01/12 14:46:37;;;;;;;13.40;5.47;;;7.20;99.90;;;;;;10513236;23;20222;-90
2023/01/12 14:52:35;;;;;;;20.63;7.67;;;7.20;99.90;;;;;;10394119;23;20225;-90
2023/01/12 15:06:15;;;;;;;13.57;4.60;;;7.20;99.90;;;;;;10370839;23;20187;-91
2023/01/12 15:28:53;;;;;;;15.47;7.23;;;7.20;99.90;;;;;;10417020;23;20323;-82
2023/01/12 15:34:15;;;;;;;11.87;4.93;;;7.30;99.90;;;;;;10386445;28;20227;-85
2023/01/12 15:39:36;;;;;;;14.13;6.00;;;7.40;99.90;;;;;;10386965;28;20196;-86
2023/01/12 15:44:57;;;;;;;11.00;4.50;;;7.40;99.90;;;;;;10367162;23;20273;-83
2023/01/12 15:50:19;;;;;;;13.57;5.40;;;7.50;99.90;;;;;;10372569;28;20215;-83
2023/01/12 15:55:40;;;;;;;19.60;7.93;;;7.50;99.90;;;;;;10441173;23;20239;-86
2023/01/12 16:01:09;;;;;;;19.47;6.93;;;7.60;99.90;;;;;;10377586;28;20436;-84
2023/01/12 16:06:31;;;;;;;25.43;10.83;;;7.60;99.90;;;;;;10354199;28;20199;-83
2023/01/12 16:12:18;;;;;;;16.90;6.67;;;7.40;99.90;;;;;;10378250;28;20220;-88
2023/01/12 16:17:41;;;;;;;33.27;11.93;;;7.50;99.90;;;;;;10361734;28;20224;-85
2023/01/12 16:23:03;;;;;;;15.13;6.90;;;7.30;99.90;;;;;;10361167;28;20200;-87
2023/01/12 16:28:38;;;;;;;24.27;9.00;;;7.30;99.90;;;;;;10364067;28;20266;-83
2023/01/12 16:34:02;;;;;;;21.37;8.77;;;7.30;99.90;;;;;;10372279;28;20241;-88
2023/01/12 16:39:26;;;;;;;27.43;10.70;;;7.20;99.90;;;;;;10347408;28;20204;-85
2023/01/12 16:44:48;;;;;;;15.30;7.57;;;7.20;99.90;;;;;;10362653;28;20209;-82
2023/01/12 16:50:10;;;;;;;29.93;13.77;;;7.20;99.90;;;;;;10348089;28;20446;-81
2023/01/12 16:55:32;;;;;;;26.47;11.57;;;7.30;99.90;;;;;;10350073;28;20252;-81
2023/01/12 17:00:57;;;;;;;24.47;11.40;;;7.30;99.90;;;;;;10345687;28;20269;-81
2023/01/12 17:06:20;;;;;;;30.17;15.03;;;7.40;99.90;;;;;;10375829;28;20390;-85
2023/01/12 17:11:42;;;;;;;30.63;14.47;;;7.40;99.90;;;;;;10359203;28;20235;-81
2023/01/12 17:17:07;;;;;;;33.03;12.27;;;7.40;99.90;;;;;;10360378;28;20231;-82
2023/01/12 17:22:30;;;;;;;31.67;11.43;;;7.30;99.90;;;;;;10360970;28;20267;-80
2023/01/12 17:27:51;;;;;;;35.10;13.90;;;7.30;99.90;;;;;;10367232;28;20226;-81
2023/01/12 17:33:12;;;;;;;32.67;14.20;;;7.40;99.90;;;;;;10358656;28;20222;-81
2023/01/12 17:38:35;;;;;;;28.43;12.37;;;7.40;99.90;;;;;;10369337;28;20230;-81
2023/01/12 17:43:58;;;;;;;19.47;8.07;;;7.40;99.90;;;;;;10382298;28;20396;-86
2023/01/12 17:49:20;;;;;;;14.67;6.40;;;7.40;99.90;;;;;;10371684;28;20200;-86
2023/01/12 17:54:41;;;;;;;10.13;4.83;;;7.30;99.90;;;;;;10354653;28;20237;-82
2023/01/12 18:00:07;;;;;;;25.57;10.77;;;7.30;99.90;;;;;;10381565;28;20325;-82
2023/01/12 18:05:34;;;;;;;34.07;12.40;;;7.30;99.90;;;;;;10367552;28;20202;-80
2023/01/12 18:10:55;;;;;;;27.93;9.97;;;7.30;99.90;;;;;;10387866;28;20284;-82
2023/01/12 18:16:16;;;;;;;20.00;7.53;;;7.30;99.90;;;;;;10384166;28;20225;-86
2023/01/12 18:21:38;;;;;;;29.20;10.87;;;7.30;99.90;;;;;;10389558;28;20195;-81
2023/01/12 18:27:00;;;;;;;31.23;11.00;;;7.20;99.90;;;;;;10390026;28;20193;-82
2023/01/12 18:32:21;;;;;;;41.90;14.47;;;7.10;99.90;;;;;;10361870;28;20409;-84
2023/01/12 18:37:42;;;;;;;26.20;8.50;;;7.20;99.90;;;;;;10393937;28;20483;-83
2023/01/12 18:43:04;;;;;;;17.60;8.27;;;7.20;99.90;;;;;;10340741;28;20212;-85
2023/01/12 18:48:25;;;;;;;15.97;7.30;;;7.20;99.90;;;;;;10371061;28;20396;-82
2023/01/12 18:53:46;;;;;;;9.37;4.33;;;7.30;99.90;;;;;;10361176;28;20239;-83
2023/01/12 18:59:08;;;;;;;23.13;11.87;;;7.30;99.90;;;;;;10352285;28;20230;-82
2023/01/12 19:10:09;;;;;;;19.33;8.20;;;7.30;99.90;;;;;;10356016;28;20197;-83
2023/01/12 19:32:30;;;;;;;23.13;8.83;;;7.20;99.90;;;;;;10389999;28;20303;-84
2023/01/12 19:37:51;;;;;;;20.70;6.83;;;7.20;99.90;;;;;;10342255;28;20219;-82
2023/01/12 19:43:22;;;;;;;30.40;12.07;;;7.20;99.90;;;;;;10327947;28;20200;-83
2023/01/12 19:48:44;;;;;;;26.53;12.30;;;7.20;99.90;;;;;;10347354;28;20202;-83
2023/01/12 19:54:06;;;;;;;11.27;5.47;;;7.20;99.90;;;;;;10345238;28;20255;-80
2023/01/12 19:59:27;;;;;;;36.87;11.20;;;7.20;99.90;;;;;;10386092;28;20247;-82
2023/01/12 20:04:48;;;;;;;22.00;9.10;;;7.20;99.90;;;;;;10372243;28;20208;-81
2023/01/12 20:10:09;;;;;;;22.50;8.33;;;7.30;99.90;;;;;;10348504;28;20213;-84
2023/01/12 20:15:32;;;;;;;27.47;10.00;;;7.20;99.90;;;;;;10383818;28;20234;-85
2023/01/12 20:20:57;;;;;;;24.50;10.07;;;7.20;99.90;;;;;;10332312;28;20499;-82
2023/01/12 20:26:18;;;;;;;27.43;10.13;;;7.30;99.90;;;;;;10369968;28;20198;-82
2023/01/12 20:31:39;;;;;;;38.87;17.30;;;7.20;99.90;;;;;;10401186;28;20212;-83
2023/01/12 20:37:00;;;;;;;35.00;17.40;;;7.20;99.90;;;;;;10351858;28;20201;-85
2023/01/12 20:42:22;;;;;;;31.00;15.30;;;7.10;99.90;;;;;;10335794;28;20518;-80
2023/01/12 20:47:43;;;;;;;19.50;9.53;;;7.10;99.90;;;;;;10370389;28;20204;-81
2023/01/12 20:53:04;;;;;;;30.00;15.90;;;7.20;99.90;;;;;;10369543;28;20231;-81
2023/01/12 20:58:26;;;;;;;12.57;5.90;;;7.20;99.90;;;;;;10370823;28;20272;-80
2023/01/12 21:03:47;;;;;;;10.67;5.57;;;7.30;99.90;;;;;;10328486;28;20403;-81
2023/01/12 21:09:08;;;;;;;9.00;4.57;;;7.20;99.90;;;;;;10329416;28;20273;-83
2023/01/12 21:14:30;;;;;;;9.67;3.90;;;7.30;99.90;;;;;;10326081;28;20220;-83
2023/01/12 21:19:52;;;;;;;11.33;4.63;;;7.20;99.90;;;;;;10333837;28;20216;-82
2023/01/12 21:25:13;;;;;;;11.60;5.63;;;7.30;99.90;;;;;;10337892;28;20279;-85
2023/01/12 21:30:35;;;;;;;12.00;7.03;;;7.20;99.90;;;;;;10381868;28;20196;-83
2023/01/12 21:35:57;;;;;;;9.57;6.70;;;7.30;99.90;;;;;;10319226;28;20241;-82
2023/01/12 21:41:20;;;;;;;13.37;7.80;;;7.20;99.90;;;;;;10308192;28;20204;-82
2023/01/12 21:46:42;;;;;;;11.70;7.23;;;7.20;99.90;;;;;;10312546;28;20197;-84
2023/01/12 21:52:03;;;;;;;21.00;11.53;;;7.10;99.90;;;;;;10314067;28;20200;-83
2023/01/12 21:57:24;;;;;;;10.00;5.30;;;7.30;99.90;;;;;;10329330;28;20243;-85
2023/01/12 22:02:46;;;;;;;12.57;6.00;;;7.30;99.90;;;;;;10349843;28;20203;-82
2023/01/12 22:08:07;;;;;;;14.87;8.10;;;7.30;99.90;;;;;;10313493;28;20504;-79
2023/01/12 22:13:29;;;;;;;11.10;6.30;;;7.20;99.90;;;;;;10317726;28;20226;-81
2023/01/12 22:18:51;;;;;;;12.23;6.80;;;7.20;99.90;;;;;;10328861;28;20487;-81
2023/01/12 22:24:12;;;;;;;13.23;7.23;;;7.20;99.90;;;;;;10312916;28;20255;-81
2023/01/12 22:29:33;;;;;;;20.20;11.10;;;7.30;99.90;;;;;;10335209;28;20236;-81
2023/01/12 22:34:57;;;;;;;13.87;7.90;;;7.30;99.90;;;;;;10321360;28;20227;-83
2023/01/12 22:40:18;;;;;;;10.40;5.10;;;7.30;99.90;;;;;;10349299;28;20193;-80
2023/01/12 22:45:40;;;;;;;12.83;9.20;;;7.20;99.90;;;;;;10348539;28;20212;-84
2023/01/12 22:51:01;;;;;;;11.40;6.17;;;7.30;99.90;;;;;;10336576;28;20195;-85
2023/01/12 22:56:22;;;;;;;10.40;5.27;;;7.30;99.90;;;;;;10347788;28;20268;-80
2023/01/12 23:01:43;;;;;;;9.23;5.33;;;7.30;99.90;;;;;;10332072;28;20199;-81
2023/01/12 23:07:05;;;;;;;6.23;4.43;;;7.30;99.90;;;;;;10331830;28;20232;-80
2023/01/12 23:12:26;;;;;;;6.03;3.97;;;7.30;99.90;;;;;;10335840;28;20217;-81
2023/01/12 23:17:47;;;;;;;9.40;6.10;;;7.30;99.90;;;;;;10313295;28;20222;-82
2023/01/12 23:23:09;;;;;;;6.00;3.97;;;7.20;99.90;;;;;;10291453;28;20280;-82
2023/01/12 23:28:37;;;;;;;8.93;5.13;;;7.30;99.90;;;;;;10344666;28;20205;-82
2023/01/12 23:34:00;;;;;;;5.97;4.57;;;7.20;99.90;;;;;;10327865;28;20233;-83
2023/01/12 23:39:21;;;;;;;6.33;4.70;;;7.30;99.90;;;;;;10330716;28;20209;-80
2023/01/12 23:44:43;;;;;;;9.37;6.63;;;7.30;99.90;;;;;;10329185;28;20209;-80
2023/01/12 23:50:05;;;;;;;9.03;4.53;;;7.20;99.90;;;;;;10330391;28;20194;-81
2023/01/12 23:55:28;;;;;;;6.83;4.77;;;7.20;99.90;;;;;;10316388;28;20611;-84
